Eakin, South Dakota
Current Conditions -  °F | °C
As of 10:53 AM on Thursday 30 Oct 2014 (Local Time) from KPIR Reporting Station
Clear Clear  
Wind Chill: 35°   Ceiling: Unl
Heat Index: 44°   Visibility: 10mi
Dew Point: 34°   Wind: 24mph
Humidity: 68%   Direction: 340°NNW
Pressure: 30.24"   Gusts: 30mph
Location:  44.3693°N, 100.04°W
Report Text: KPIR 301553Z AUTO 34021G26KT 10SM CLR 07/01 A3024 RMK AO2 PK WND 34026/1553 SLP247 T00670011
Loading
Personal Weather Stations






























Interactive Weather Map
Tropical Storm Tracking
New forecast layout! Learn more

10-Day Weather Forecast

Advertisements
Track Severe Weather on mobile